Bancroft, Wisconsin
Current Conditions -  °F | °C
As of 4:54 AM on Friday 31 Oct 2014 (Local Time) from KISW Reporting Station
Broken Clouds Broken Clouds  
Wind Chill: 20°   Ceiling: 3200
Heat Index: 32°   Visibility: 10mi
Dew Point: 24°   Wind: 18mph
Humidity: 73%   Direction: 360°N
Pressure: 30.23"   Gusts: 28mph
Location:  44.31°N, 89.51°W
Report Text: KISW 310954Z AUTO 36016G24KT 10SM BKN032 00/M04 A3023 RMK AO2 PK WND 36030/0907 SLP247 T00001044 $
Loading
Personal Weather Stations






























Interactive Weather Map
Tropical Storm Tracking
New forecast layout! Learn more

10-Day Weather Forecast

Advertisements
Track Severe Weather on mobile